This is the latest recevied weather packets stored in our database for station/object F5SAW-10. If no packets are shown the sender has not sent any weather packets the latest 10 day(s).
| Time | Temp. | Humidity | Pressure | Rain* | Wind** | Luminosity | Snow |
|---|---|---|---|---|---|---|---|
| 1778149884 | 25.56° C | 36% | 978.8 hPa | - | - | - | - |
| 1778148984 | 25.56° C | 36% | 978.8 hPa | - | - | - | - |
| 1778148083 | 25.56° C | 36% | 978.8 hPa | - | - | - | - |
| 1778147184 | 25.56° C | 37% | 979 hPa | - | - | - | - |
| 1778147183 | 25.56° C | 37% | 979 hPa | - | - | - | - |
| 1778146283 | 25.56° C | 37% | 979 hPa | - | - | - | - |
| 1778145383 | 25° C | 37% | 979.1 hPa | - | - | - | - |
| 1778144485 | 25° C | 37% | 979.1 hPa | - | - | - | - |
| 1778143583 | 25° C | 37% | 979 hPa | - | - | - | - |
| 1778142683 | 25° C | 37% | 979.2 hPa | - | - | - | - |
| 1778141783 | 25° C | 37% | 979.3 hPa | - | - | - | - |
| 1778140883 | 25° C | 37% | 979.4 hPa | - | - | - | - |
| 1778139983 | 25° C | 37% | 979.3 hPa | - | - | - | - |
| 1778139082 | 25° C | 37% | 979.3 hPa | - | - | - | - |
| 1778138182 | 25° C | 37% | 979.4 hPa | - | - | - | - |
| 1778137282 | 25° C | 38% | 979.4 hPa | - | - | - | - |
| 1778136382 | 25° C | 38% | 979.3 hPa | - | - | - | - |
| 1778135482 | 24.44° C | 39% | 979.4 hPa | - | - | - | - |
| 1778134582 | 23.33° C | 44% | 979.4 hPa | - | - | - | - |
| 1778133682 | 18.33° C | 55% | 979.4 hPa | - | - | - | - |
| 1778093187 | 26.11° C | 37% | 978.8 hPa | - | - | - | - |
| 1778092287 | 26.11° C | 36% | 978.8 hPa | - | - | - | - |
| 1778091387 | 26.11° C | 36% | 978.7 hPa | - | - | - | - |
| 1778090487 | 26.11° C | 36% | 978.6 hPa | - | - | - | - |
| 1778089587 | 26.11° C | 36% | 978.5 hPa | - | - | - | - |
* Rain since midnight (hover to see other rain measurements)
** Current wind speed in m/s (hover to see current wind gust speed)